Time;durP1;ratioP1;P1;durP2;ratioP2;P2;SDS_P1;SDS_P2;PMS_P1;PMS_P2;Temp;Humidity;BMP_temperature;BMP_pressure;BME280_temperature;BME280_humidity;BME280_pressure;Samples;Min_cycle;Max_cycle;Signal;HPM_P1;HPM_P2
2023/09/08 00:01:39;;;;;;;10.50;10.30;;;19.60;99.90;;;;;;4987733;28;20914;-66
2023/09/08 00:04:07;;;;;;;10.57;10.37;;;19.50;99.90;;;;;;4979864;28;20517;-67
2023/09/08 00:06:34;;;;;;;10.70;10.50;;;19.40;99.90;;;;;;4984459;28;20483;-67
2023/09/08 00:09:03;;;;;;;10.23;10.03;;;19.40;99.90;;;;;;4989275;28;21068;-67
2023/09/08 00:11:31;;;;;;;10.40;10.20;;;19.40;99.90;;;;;;4988918;28;20474;-67
2023/09/08 00:13:58;;;;;;;10.60;10.40;;;19.40;99.90;;;;;;4986221;28;20459;-67
2023/09/08 00:16:25;;;;;;;10.23;10.03;;;19.30;99.90;;;;;;4980412;28;20524;-67
2023/09/08 00:18:52;;;;;;;10.10;9.90;;;19.30;99.90;;;;;;4986006;28;20942;-67
2023/09/08 00:21:20;;;;;;;10.20;10.00;;;19.40;99.90;;;;;;4989210;28;20462;-67
2023/09/08 00:23:47;;;;;;;9.90;9.70;;;19.40;99.90;;;;;;4979183;28;20569;-66
2023/09/08 00:26:14;;;;;;;9.80;9.60;;;19.40;99.90;;;;;;4987282;28;20482;-67
2023/09/08 00:28:44;;;;;;;10.00;9.80;;;19.30;99.90;;;;;;4988736;28;20565;-66
2023/09/08 00:31:11;;;;;;;10.00;9.80;;;19.40;99.90;;;;;;4988715;28;20946;-66
2023/09/08 00:33:38;;;;;;;10.30;10.10;;;19.30;99.90;;;;;;4976574;28;20541;-67
2023/09/08 00:36:05;;;;;;;10.20;10.00;;;19.30;99.90;;;;;;4986052;28;20513;-66
2023/09/08 00:38:32;;;;;;;10.27;10.07;;;19.30;99.90;;;;;;4988291;28;20486;-67
2023/09/08 00:41:00;;;;;;;9.60;9.40;;;19.30;99.90;;;;;;4981340;28;20459;-67
2023/09/08 00:43:28;;;;;;;10.20;10.00;;;19.30;99.90;;;;;;4982289;28;20531;-67
2023/09/08 00:45:58;;;;;;;9.83;9.63;;;19.30;99.90;;;;;;4988780;28;20465;-67
2023/09/08 00:48:26;;;;;;;10.00;9.80;;;19.40;99.90;;;;;;4980145;28;20479;-66
2023/09/08 00:50:52;;;;;;;9.87;9.67;;;19.40;99.90;;;;;;4976028;28;20475;-67
2023/09/08 00:53:21;;;;;;;9.93;9.73;;;19.30;99.90;;;;;;4986389;28;20482;-67
2023/09/08 00:55:49;;;;;;;10.10;9.90;;;19.40;99.90;;;;;;4978510;28;20843;-66
2023/09/08 00:58:16;;;;;;;9.97;9.77;;;19.40;99.90;;;;;;4987076;28;20470;-66
2023/09/08 01:00:44;;;;;;;9.70;9.50;;;19.40;99.90;;;;;;4988676;28;20674;-67
2023/09/08 01:03:13;;;;;;;10.03;9.83;;;19.40;99.90;;;;;;4988876;28;20569;-67
2023/09/08 01:05:40;;;;;;;10.03;9.83;;;19.40;99.90;;;;;;4985654;28;20467;-67
2023/09/08 01:08:08;;;;;;;9.70;9.50;;;19.30;99.90;;;;;;4983143;28;20574;-67
2023/09/08 01:10:36;;;;;;;9.60;9.40;;;19.40;99.90;;;;;;4992517;28;20469;-67
2023/09/08 01:13:03;;;;;;;9.60;9.40;;;19.30;99.90;;;;;;4984326;28;20502;-67
2023/09/08 01:15:31;;;;;;;9.40;9.20;;;19.30;99.90;;;;;;4983899;28;20466;-67
2023/09/08 01:17:57;;;;;;;9.70;9.50;;;19.30;99.90;;;;;;4992457;28;20505;-67
2023/09/08 01:20:31;;;;;;;9.80;9.60;;;19.40;99.90;;;;;;4992286;28;20549;-67
2023/09/08 01:23:19;;;;;;;9.70;9.50;;;19.30;99.90;;;;;;4989295;28;20883;-67
2023/09/08 01:25:53;;;;;;;10.07;9.87;;;19.30;99.90;;;;;;4977698;28;20636;-67
2023/09/08 01:28:22;;;;;;;9.83;9.63;;;19.30;99.90;;;;;;4982008;28;20841;-67
2023/09/08 01:30:49;;;;;;;9.60;9.40;;;19.30;99.90;;;;;;4992257;28;20554;-67
2023/09/08 01:33:17;;;;;;;10.13;9.93;;;19.30;99.90;;;;;;4991899;28;20462;-66
2023/09/08 01:35:46;;;;;;;9.93;9.73;;;19.30;99.90;;;;;;4991901;28;20866;-67
2023/09/08 01:38:13;;;;;;;10.37;10.17;;;19.30;99.90;;;;;;4983802;28;20462;-66
2023/09/08 01:40:40;;;;;;;9.77;9.57;;;19.30;99.90;;;;;;4984947;28;20455;-67
2023/09/08 01:43:11;;;;;;;10.10;9.90;;;19.20;99.90;;;;;;4990317;28;20462;-67
2023/09/08 01:45:38;;;;;;;10.10;9.90;;;19.20;99.90;;;;;;4980253;28;20466;-66
2023/09/08 01:48:06;;;;;;;9.93;9.73;;;19.20;99.90;;;;;;4991562;28;20941;-67
2023/09/08 01:50:33;;;;;;;9.60;9.40;;;19.10;99.90;;;;;;4991819;28;20463;-67
2023/09/08 01:53:00;;;;;;;9.40;9.20;;;19.10;99.90;;;;;;4988784;28;21332;-68
2023/09/08 01:55:27;;;;;;;9.50;9.30;;;19.00;99.90;;;;;;4981376;28;20988;-66
2023/09/08 01:57:55;;;;;;;9.90;9.70;;;19.00;99.90;;;;;;4990250;28;20969;-67
2023/09/08 02:00:24;;;;;;;9.90;9.70;;;19.00;99.90;;;;;;4991166;28;20459;-67
2023/09/08 02:02:52;;;;;;;9.90;9.70;;;18.90;99.90;;;;;;4983440;28;20479;-67
2023/09/08 02:05:19;;;;;;;9.80;9.60;;;18.90;99.90;;;;;;4989262;28;20459;-67
2023/09/08 02:07:46;;;;;;;9.70;9.50;;;18.90;99.90;;;;;;4990406;28;20517;-67
2023/09/08 02:10:13;;;;;;;9.53;9.33;;;18.90;99.90;;;;;;4988558;28;20587;-66
2023/09/08 02:12:39;;;;;;;9.80;9.60;;;18.90;99.90;;;;;;4985375;28;20466;-68
2023/09/08 02:15:08;;;;;;;9.70;9.50;;;18.90;99.90;;;;;;4981235;28;20465;-67
2023/09/08 02:17:37;;;;;;;9.90;9.70;;;18.80;99.90;;;;;;4988480;28;20481;-67
2023/09/08 02:20:06;;;;;;;9.90;9.70;;;18.80;99.90;;;;;;4988091;28;20466;-66
2023/09/08 02:22:34;;;;;;;9.70;9.50;;;18.80;99.90;;;;;;4987269;28;20803;-67
2023/09/08 02:25:01;;;;;;;9.77;9.57;;;18.70;99.90;;;;;;4988359;28;20469;-67
2023/09/08 02:27:29;;;;;;;9.70;9.50;;;18.80;99.90;;;;;;4981501;28;20462;-66
2023/09/08 02:29:56;;;;;;;9.70;9.50;;;18.70;99.90;;;;;;4990312;28;20556;-66
2023/09/08 02:32:22;;;;;;;9.50;9.30;;;18.70;99.90;;;;;;4983100;28;20471;-67
2023/09/08 02:34:52;;;;;;;9.87;9.67;;;18.60;99.90;;;;;;4986323;28;20454;-67
2023/09/08 02:37:20;;;;;;;9.67;9.47;;;18.70;99.90;;;;;;4990919;28;20477;-67
2023/09/08 02:39:46;;;;;;;9.60;9.40;;;18.60;99.90;;;;;;4984477;28;20501;-67
2023/09/08 02:42:13;;;;;;;9.70;9.50;;;18.60;99.90;;;;;;4977289;28;20473;-67
2023/09/08 02:44:41;;;;;;;9.40;9.20;;;18.50;99.90;;;;;;4987070;28;20466;-66
2023/09/08 02:47:08;;;;;;;9.30;9.10;;;18.60;99.90;;;;;;4988130;28;20467;-67
2023/09/08 02:49:35;;;;;;;9.60;9.40;;;18.50;99.90;;;;;;4989495;28;20474;-67
2023/09/08 02:52:05;;;;;;;9.70;9.50;;;18.40;99.90;;;;;;4981651;28;20472;-66
2023/09/08 02:54:33;;;;;;;9.60;9.40;;;18.40;99.90;;;;;;4990971;28;20537;-67
2023/09/08 02:57:00;;;;;;;9.70;9.50;;;18.40;99.90;;;;;;4983670;28;20467;-67
2023/09/08 02:59:26;;;;;;;9.60;9.40;;;18.40;99.90;;;;;;4988494;28;20466;-66
2023/09/08 03:01:55;;;;;;;10.00;9.80;;;18.30;99.90;;;;;;4984959;28;20971;-66
2023/09/08 03:04:22;;;;;;;9.73;9.53;;;18.30;99.90;;;;;;4989341;28;20459;-67
2023/09/08 03:06:48;;;;;;;9.70;9.50;;;18.40;99.90;;;;;;4990717;28;20517;-67
2023/09/08 03:09:16;;;;;;;9.63;9.43;;;18.30;99.90;;;;;;4990304;28;20498;-66
2023/09/08 03:11:43;;;;;;;9.53;9.33;;;18.30;99.90;;;;;;4981305;28;20483;-67
2023/09/08 03:14:11;;;;;;;9.60;9.40;;;18.30;99.90;;;;;;4982284;28;20459;-67
2023/09/08 03:16:38;;;;;;;9.60;9.40;;;18.30;99.90;;;;;;4987232;28;20466;-67
2023/09/08 03:19:06;;;;;;;9.53;9.33;;;18.30;99.90;;;;;;4990331;28;20478;-67
2023/09/08 03:21:33;;;;;;;9.60;9.40;;;18.30;99.90;;;;;;4989938;28;20462;-66
2023/09/08 03:24:01;;;;;;;9.60;9.40;;;18.30;99.90;;;;;;4988453;28;20462;-66
2023/09/08 03:26:29;;;;;;;9.90;9.70;;;18.30;99.90;;;;;;4982944;28;20490;-66
2023/09/08 03:28:56;;;;;;;9.60;9.40;;;18.20;99.90;;;;;;4984458;28;20491;-66
2023/09/08 03:31:23;;;;;;;9.87;9.67;;;18.20;99.90;;;;;;4983839;28;20470;-67
2023/09/08 03:33:51;;;;;;;9.50;9.30;;;18.20;99.90;;;;;;4987116;28;20466;-67
2023/09/08 03:36:18;;;;;;;9.90;9.70;;;18.20;99.90;;;;;;4986667;28;20477;-67
2023/09/08 03:38:44;;;;;;;9.70;9.50;;;18.10;99.90;;;;;;4979226;28;20470;-67
2023/09/08 03:41:11;;;;;;;9.90;9.70;;;18.20;99.90;;;;;;4985018;28;20470;-67
2023/09/08 03:43:39;;;;;;;9.90;9.70;;;18.10;99.90;;;;;;4984265;28;20561;-67
2023/09/08 03:46:07;;;;;;;9.73;9.53;;;18.10;99.90;;;;;;4989482;28;20458;-67
2023/09/08 03:48:34;;;;;;;10.10;9.90;;;18.10;99.90;;;;;;4979153;28;20578;-67
2023/09/08 03:51:00;;;;;;;9.73;9.53;;;18.00;99.90;;;;;;4984984;28;20505;-67
2023/09/08 03:53:27;;;;;;;10.00;9.80;;;18.00;99.90;;;;;;4987135;28;20483;-66
2023/09/08 03:55:54;;;;;;;9.70;9.50;;;18.00;99.90;;;;;;4985803;28;20790;-67
2023/09/08 03:58:21;;;;;;;10.17;9.97;;;17.90;99.90;;;;;;4989612;28;20462;-68
2023/09/08 04:00:49;;;;;;;10.17;9.97;;;17.90;99.90;;;;;;4986559;28;20518;-66
2023/09/08 04:03:16;;;;;;;10.20;10.00;;;17.90;99.90;;;;;;4987768;28;20509;-67
2023/09/08 04:05:43;;;;;;;10.43;10.23;;;17.80;99.90;;;;;;4974595;28;20471;-67
2023/09/08 04:08:09;;;;;;;10.40;10.20;;;17.80;99.90;;;;;;4984521;28;20549;-67
2023/09/08 04:10:36;;;;;;;10.00;9.80;;;17.80;99.90;;;;;;4989555;28;20581;-67
2023/09/08 04:13:04;;;;;;;10.00;9.80;;;17.80;99.90;;;;;;4988742;28;20470;-66
2023/09/08 04:15:31;;;;;;;10.07;9.87;;;17.80;99.90;;;;;;4985886;28;20813;-66
2023/09/08 04:17:59;;;;;;;10.07;9.87;;;17.70;99.90;;;;;;4985238;28;20957;-66
2023/09/08 04:20:27;;;;;;;10.00;9.80;;;17.70;99.90;;;;;;4986419;28;20509;-66
2023/09/08 04:22:55;;;;;;;9.90;9.70;;;17.60;99.90;;;;;;4982260;28;20478;-68
2023/09/08 04:25:24;;;;;;;9.90;9.70;;;17.50;99.90;;;;;;4980937;28;20486;-66
2023/09/08 04:27:51;;;;;;;9.50;9.30;;;17.50;99.90;;;;;;4988873;28;20944;-66
2023/09/08 04:30:19;;;;;;;9.70;9.50;;;17.60;99.90;;;;;;4986642;28;20499;-65
2023/09/08 04:32:46;;;;;;;10.03;9.83;;;17.50;99.90;;;;;;4985991;28;20498;-66
2023/09/08 04:35:14;;;;;;;9.67;9.47;;;17.50;99.90;;;;;;4976638;28;20466;-67
2023/09/08 04:37:41;;;;;;;9.00;8.80;;;17.40;99.90;;;;;;4971487;28;20990;-66
2023/09/08 04:40:10;;;;;;;9.40;9.20;;;17.40;99.90;;;;;;4983155;28;20501;-66
2023/09/08 04:42:36;;;;;;;8.90;8.80;;;17.30;99.90;;;;;;4988185;28;20485;-66
2023/09/08 04:45:04;;;;;;;9.10;8.90;;;17.30;99.90;;;;;;4988319;28;20556;-66
2023/09/08 04:47:31;;;;;;;8.90;8.80;;;17.30;99.90;;;;;;4986572;28;20474;-66
2023/09/08 04:49:57;;;;;;;9.40;9.20;;;17.30;99.90;;;;;;4985739;28;20893;-66
2023/09/08 04:52:27;;;;;;;9.10;8.90;;;17.20;99.90;;;;;;4990093;28;20470;-66
2023/09/08 04:54:54;;;;;;;9.63;9.43;;;17.20;99.90;;;;;;4984413;28;20494;-65
2023/09/08 04:57:21;;;;;;;9.43;9.23;;;17.20;99.90;;;;;;4991470;28;20524;-65
2023/09/08 04:59:49;;;;;;;9.30;9.10;;;17.20;99.90;;;;;;4987438;28;20472;-66
2023/09/08 05:02:16;;;;;;;8.60;8.50;;;17.30;99.90;;;;;;4974177;28;20463;-66
2023/09/08 05:04:42;;;;;;;8.40;8.30;;;17.30;99.90;;;;;;4987267;28;20525;-66
2023/09/08 05:07:10;;;;;;;8.50;8.40;;;17.30;99.90;;;;;;4976465;28;20477;-66
2023/09/08 05:09:38;;;;;;;8.50;8.40;;;17.20;99.90;;;;;;4986947;28;20489;-66
2023/09/08 05:12:06;;;;;;;8.60;8.50;;;17.10;99.90;;;;;;4984837;28;20466;-66
2023/09/08 05:14:33;;;;;;;8.37;8.27;;;17.20;99.90;;;;;;4983875;28;20463;-66
2023/09/08 05:17:00;;;;;;;8.80;8.70;;;17.30;99.90;;;;;;4982837;28;20469;-67
2023/09/08 05:19:27;;;;;;;8.50;8.40;;;17.30;99.90;;;;;;4977677;28;20845;-66
2023/09/08 05:21:55;;;;;;;8.37;8.27;;;17.30;99.90;;;;;;4981422;28;20526;-66
2023/09/08 05:24:22;;;;;;;8.73;8.63;;;17.30;99.90;;;;;;4982369;28;20463;-66
2023/09/08 05:26:50;;;;;;;8.70;8.60;;;17.20;99.90;;;;;;4990947;28;20545;-66
2023/09/08 05:29:20;;;;;;;9.40;9.20;;;17.20;99.90;;;;;;4987730;28;20477;-66
2023/09/08 05:31:46;;;;;;;9.30;9.10;;;17.20;99.90;;;;;;4987884;28;20831;-67
2023/09/08 05:34:13;;;;;;;9.17;8.97;;;17.30;99.90;;;;;;4985929;28;20524;-67
2023/09/08 05:36:42;;;;;;;9.47;9.27;;;17.30;99.90;;;;;;4975157;28;20471;-67
2023/09/08 05:39:10;;;;;;;9.50;9.30;;;17.40;99.90;;;;;;4981423;28;21394;-67
2023/09/08 05:41:37;;;;;;;9.40;9.20;;;17.40;99.90;;;;;;4984451;28;20925;-66
2023/09/08 05:44:07;;;;;;;9.17;8.97;;;17.50;99.90;;;;;;4983034;28;20561;-67
2023/09/08 05:46:34;;;;;;;8.40;8.30;;;17.50;99.90;;;;;;4980612;28;20970;-67
2023/09/08 05:49:01;;;;;;;8.80;8.70;;;17.50;99.90;;;;;;4981358;28;20462;-67
2023/09/08 05:51:28;;;;;;;8.67;8.57;;;17.50;99.90;;;;;;4978401;28;20493;-66
2023/09/08 05:53:54;;;;;;;8.53;8.43;;;17.50;99.90;;;;;;4979888;28;20494;-66
2023/09/08 05:56:21;;;;;;;8.20;8.10;;;17.60;99.90;;;;;;4981848;28;20501;-67
2023/09/08 05:58:48;;;;;;;8.90;8.80;;;17.70;99.90;;;;;;4986848;28;20470;-67
2023/09/08 06:01:16;;;;;;;8.87;8.77;;;17.70;99.90;;;;;;4981082;28;20521;-67
2023/09/08 06:03:43;;;;;;;8.97;8.87;;;17.70;99.90;;;;;;4981889;28;20477;-66
2023/09/08 06:06:10;;;;;;;8.73;8.63;;;17.90;99.90;;;;;;4986245;28;20466;-67
2023/09/08 06:08:37;;;;;;;9.30;9.10;;;18.00;99.90;;;;;;4982222;28;21085;-66
2023/09/08 06:11:05;;;;;;;9.50;9.30;;;18.10;99.90;;;;;;4987110;28;20532;-67
2023/09/08 06:13:33;;;;;;;9.50;9.30;;;18.20;99.90;;;;;;4987479;28;20477;-67
2023/09/08 06:16:00;;;;;;;9.40;9.20;;;18.30;99.90;;;;;;4985388;28;20474;-67
2023/09/08 06:18:31;;;;;;;9.80;9.60;;;18.40;99.90;;;;;;4983079;28;20477;-67
2023/09/08 06:20:58;;;;;;;10.27;10.07;;;18.50;99.90;;;;;;4977574;28;20571;-67
2023/09/08 06:23:25;;;;;;;10.10;9.90;;;18.60;99.90;;;;;;4987922;28;20463;-67
2023/09/08 06:25:58;;;;;;;10.10;9.90;;;18.60;99.90;;;;;;4987323;28;20545;-67
2023/09/08 06:28:25;;;;;;;10.40;10.20;;;18.80;99.90;;;;;;4983658;28;20579;-66
2023/09/08 06:30:53;;;;;;;10.20;10.00;;;18.90;99.90;;;;;;4982846;28;20490;-67
2023/09/08 06:33:21;;;;;;;10.70;10.50;;;19.10;99.90;;;;;;4986152;28;20470;-68
2023/09/08 06:35:49;;;;;;;10.70;10.50;;;19.20;99.90;;;;;;4982568;28;20477;-66
2023/09/08 06:38:17;;;;;;;10.80;10.60;;;19.30;99.90;;;;;;4991360;28;20960;-67
2023/09/08 06:40:44;;;;;;;10.80;10.60;;;19.40;99.90;;;;;;4986808;28;20462;-67
2023/09/08 06:43:10;;;;;;;10.90;10.70;;;19.60;99.90;;;;;;4985419;28;20454;-67
2023/09/08 06:45:39;;;;;;;11.40;11.10;;;19.70;99.90;;;;;;4984671;28;20470;-68
2023/09/08 06:48:06;;;;;;;11.40;11.10;;;19.70;99.90;;;;;;4978434;28;20561;-67
2023/09/08 06:50:33;;;;;;;11.37;11.07;;;19.90;99.90;;;;;;4989131;28;20502;-67
2023/09/08 06:53:01;;;;;;;11.50;11.20;;;19.90;99.90;;;;;;4985144;28;20497;-68
2023/09/08 06:55:28;;;;;;;11.30;11.00;;;20.00;99.90;;;;;;4986051;28;20462;-67
2023/09/08 06:57:55;;;;;;;11.50;11.20;;;20.10;99.90;;;;;;4985861;28;20827;-67
2023/09/08 07:00:22;;;;;;;11.40;11.10;;;20.20;99.90;;;;;;4988883;28;20458;-68
2023/09/08 07:02:50;;;;;;;11.70;11.40;;;20.20;99.90;;;;;;4981865;28;20818;-67
2023/09/08 07:05:17;;;;;;;11.87;11.57;;;20.30;99.90;;;;;;4985200;28;20463;-67
2023/09/08 07:07:45;;;;;;;12.23;11.93;;;20.40;99.90;;;;;;4982786;28;21046;-67
2023/09/08 07:10:14;;;;;;;12.67;12.30;;;20.50;99.90;;;;;;4976563;28;20486;-67
2023/09/08 07:12:41;;;;;;;12.20;11.90;;;20.50;99.90;;;;;;4978890;28;20560;-68
2023/09/08 07:15:09;;;;;;;12.07;11.77;;;20.60;99.90;;;;;;4984169;28;20469;-68
2023/09/08 07:17:36;;;;;;;12.10;11.80;;;20.70;99.90;;;;;;4986566;28;20466;-67
2023/09/08 07:20:04;;;;;;;12.47;12.17;;;20.70;99.90;;;;;;4983405;28;20473;-68
2023/09/08 07:22:31;;;;;;;12.50;12.20;;;20.80;99.90;;;;;;4986008;28;21069;-67
2023/09/08 07:24:58;;;;;;;12.53;12.23;;;21.00;99.90;;;;;;4981981;28;20475;-67
2023/09/08 07:27:27;;;;;;;12.23;11.93;;;21.10;99.90;;;;;;4983235;28;20841;-68
2023/09/08 07:29:54;;;;;;;12.53;12.23;;;21.30;99.90;;;;;;4988394;28;20887;-67
2023/09/08 07:32:22;;;;;;;12.30;12.00;;;21.40;99.90;;;;;;4982675;28;20473;-68
2023/09/08 07:34:54;;;;;;;12.40;12.10;;;21.60;99.90;;;;;;4986957;28;20553;-67
2023/09/08 07:37:22;;;;;;;12.80;12.40;;;21.70;99.90;;;;;;4984619;28;20602;-67
2023/09/08 07:39:49;;;;;;;12.53;12.23;;;22.00;99.90;;;;;;4983580;28;20862;-67
2023/09/08 07:42:16;;;;;;;12.73;12.37;;;22.10;99.90;;;;;;4979813;28;20545;-68
2023/09/08 07:44:45;;;;;;;12.60;12.30;;;22.30;99.90;;;;;;4987370;28;20463;-67
2023/09/08 07:47:11;;;;;;;13.00;12.60;;;22.50;99.90;;;;;;4981098;28;20465;-67
2023/09/08 07:49:38;;;;;;;13.47;13.07;;;22.50;99.90;;;;;;4973839;28;20501;-67
2023/09/08 07:52:07;;;;;;;13.00;12.60;;;22.70;99.90;;;;;;4987215;28;20509;-67
2023/09/08 07:54:33;;;;;;;13.27;12.87;;;22.80;99.90;;;;;;4985881;28;20498;-67
2023/09/08 07:57:00;;;;;;;12.57;12.27;;;22.80;99.90;;;;;;4983480;28;20470;-68
2023/09/08 07:59:27;;;;;;;13.00;12.60;;;22.90;99.90;;;;;;4981832;28;21045;-67
2023/09/08 08:01:55;;;;;;;12.60;12.30;;;23.00;99.90;;;;;;4987246;28;20463;-68
2023/09/08 08:04:22;;;;;;;12.67;12.37;;;23.00;99.90;;;;;;4987678;28;21178;-67
2023/09/08 08:06:49;;;;;;;12.93;12.60;;;23.20;99.90;;;;;;4982760;28;20479;-68
2023/09/08 08:09:16;;;;;;;12.80;12.50;;;23.40;99.90;;;;;;4981083;28;20472;-67
2023/09/08 08:11:43;;;;;;;13.20;12.80;;;23.60;99.90;;;;;;4987659;28;20491;-67
2023/09/08 08:14:10;;;;;;;13.10;12.70;;;23.60;99.90;;;;;;4976342;28;20470;-67
2023/09/08 08:16:38;;;;;;;13.40;13.00;;;23.70;99.90;;;;;;4984286;28;20470;-67
2023/09/08 08:19:07;;;;;;;12.80;12.50;;;23.90;99.90;;;;;;4985752;28;20455;-67
2023/09/08 08:21:34;;;;;;;13.13;12.73;;;23.80;99.90;;;;;;4981363;28;20467;-67
2023/09/08 08:24:01;;;;;;;13.10;12.70;;;23.90;99.90;;;;;;4976346;28;20470;-67
2023/09/08 08:26:32;;;;;;;13.47;13.07;;;24.00;99.90;;;;;;4984086;28;20486;-68
2023/09/08 08:28:59;;;;;;;13.50;13.10;;;24.10;99.90;;;;;;4987318;28;20455;-67
2023/09/08 08:31:27;;;;;;;13.43;13.03;;;24.30;99.90;;;;;;4982138;28;20557;-67
2023/09/08 08:33:53;;;;;;;13.43;13.03;;;24.40;99.90;;;;;;4978233;28;20458;-68
2023/09/08 08:36:22;;;;;;;13.60;13.20;;;24.50;99.90;;;;;;4982381;28;20466;-67
2023/09/08 08:38:50;;;;;;;13.40;13.00;;;24.50;99.90;;;;;;4985827;28;20489;-67
2023/09/08 08:41:17;;;;;;;13.70;13.30;;;24.60;99.90;;;;;;4981885;28;20948;-68
2023/09/08 08:43:45;;;;;;;13.30;12.90;;;24.80;99.90;;;;;;4982399;28;21021;-67
2023/09/08 08:46:14;;;;;;;13.30;12.90;;;25.00;99.90;;;;;;4981779;28;20466;-68
2023/09/08 08:48:41;;;;;;;13.20;12.80;;;25.10;99.90;;;;;;4978607;28;20589;-68
2023/09/08 08:51:11;;;;;;;14.10;13.70;;;25.30;99.90;;;;;;4986792;28;20501;-67
2023/09/08 08:53:41;;;;;;;13.90;13.50;;;25.20;99.90;;;;;;4979613;28;20497;-67
2023/09/08 08:56:09;;;;;;;13.40;13.00;;;25.30;99.90;;;;;;4981031;28;20548;-68
2023/09/08 08:58:37;;;;;;;13.77;13.37;;;25.40;99.90;;;;;;4983208;28;20890;-68
2023/09/08 09:01:04;;;;;;;13.70;13.30;;;25.50;99.90;;;;;;4980071;28;21157;-67
2023/09/08 09:03:34;;;;;;;13.83;13.43;;;25.60;99.90;;;;;;4979577;28;20471;-67
2023/09/08 09:06:03;;;;;;;14.03;13.63;;;25.70;99.90;;;;;;4980323;28;20861;-67
2023/09/08 09:08:31;;;;;;;13.90;13.50;;;25.90;99.90;;;;;;4977471;28;20549;-67
2023/09/08 09:10:59;;;;;;;13.80;13.40;;;25.90;99.90;;;;;;4983337;28;20478;-67
2023/09/08 09:13:26;;;;;;;14.57;14.17;;;26.10;99.90;;;;;;4977681;28;20467;-67
2023/09/08 09:15:59;;;;;;;14.10;13.70;;;26.50;99.90;;;;;;4983219;28;20806;-67
2023/09/08 09:18:29;;;;;;;14.23;13.83;;;27.30;99.90;;;;;;4980333;28;20911;-68
2023/09/08 09:20:57;;;;;;;14.77;14.30;;;28.10;99.90;;;;;;4981894;28;20489;-67
2023/09/08 09:23:31;;;;;;;15.70;15.20;;;29.00;99.90;;;;;;4986856;28;20455;-68
2023/09/08 09:26:00;;;;;;;15.70;15.20;;;30.00;99.90;;;;;;4979607;28;20486;-67
2023/09/08 09:28:30;;;;;;;16.10;15.60;;;30.60;99.90;;;;;;4988729;28;20494;-67
2023/09/08 09:30:59;;;;;;;15.90;15.40;;;31.30;99.90;;;;;;4987048;28;20505;-68
2023/09/08 09:33:26;;;;;;;15.30;14.80;;;31.80;99.90;;;;;;4986922;28;20915;-68
2023/09/08 09:35:55;;;;;;;15.10;14.60;;;31.90;99.90;;;;;;4987662;28;20470;-68
2023/09/08 09:38:22;;;;;;;15.07;14.57;;;32.20;99.90;;;;;;4990275;28;20549;-67
2023/09/08 09:40:50;;;;;;;15.63;15.13;;;32.20;99.90;;;;;;4990580;28;21154;-68
2023/09/08 09:43:23;;;;;;;15.30;14.80;;;32.90;99.90;;;;;;4977018;28;20467;-68
2023/09/08 09:45:50;;;;;;;14.97;14.50;;;33.30;99.90;;;;;;4986998;28;20545;-68
2023/09/08 09:48:19;;;;;;;15.40;14.90;;;34.00;99.90;;;;;;4990528;28;20466;-68
2023/09/08 09:50:48;;;;;;;15.00;14.50;;;33.00;99.90;;;;;;4988655;28;20485;-68
2023/09/08 09:53:18;;;;;;;15.07;14.57;;;33.40;99.90;;;;;;4986635;28;20533;-68
2023/09/08 09:55:45;;;;;;;15.20;14.70;;;34.10;99.90;;;;;;4981017;28;20557;-68
2023/09/08 09:58:14;;;;;;;14.60;14.20;;;33.60;99.90;;;;;;4980623;28;20823;-68
2023/09/08 10:00:47;;;;;;;15.20;14.70;;;33.80;99.90;;;;;;4988525;28;20459;-68
2023/09/08 10:03:15;;;;;;;15.00;14.50;;;33.80;99.90;;;;;;4983164;28;20490;-68
2023/09/08 10:05:42;;;;;;;14.93;14.43;;;34.00;99.90;;;;;;4984155;28;20471;-68
2023/09/08 10:08:09;;;;;;;14.50;14.10;;;33.70;99.90;;;;;;4977824;28;20469;-68
2023/09/08 10:10:37;;;;;;;14.33;13.93;;;33.90;99.90;;;;;;4985300;28;20463;-67
2023/09/08 10:13:07;;;;;;;15.03;14.57;;;33.80;99.90;;;;;;4982468;28;20497;-68
2023/09/08 10:15:35;;;;;;;15.10;14.60;;;33.60;99.90;;;;;;4983800;28;20466;-68
2023/09/08 10:18:06;;;;;;;14.73;14.33;;;34.20;99.40;;;;;;4980284;28;20458;-68
2023/09/08 10:20:35;;;;;;;15.07;14.57;;;34.60;99.90;;;;;;4985234;28;20458;-68
2023/09/08 10:23:09;;;;;;;14.33;13.93;;;35.00;98.00;;;;;;4987169;28;20574;-68
2023/09/08 10:25:39;;;;;;;14.70;14.20;;;34.80;98.20;;;;;;4983831;28;20490;-68
2023/09/08 10:28:07;;;;;;;14.37;13.97;;;34.30;98.70;;;;;;4982210;28;20471;-68
2023/09/08 10:30:35;;;;;;;14.33;13.93;;;33.60;99.20;;;;;;4989132;28;20533;-68
2023/09/08 10:33:04;;;;;;;14.50;14.10;;;33.90;99.80;;;;;;4988954;28;20490;-68
2023/09/08 10:35:31;;;;;;;14.53;14.13;;;33.80;98.80;;;;;;4988212;28;20458;-68
2023/09/08 10:38:23;;;;;;;14.40;14.00;;;34.60;98.40;;;;;;4983384;28;20463;-68
2023/09/08 10:40:50;;;;;;;14.67;14.27;;;34.60;98.00;;;;;;4980808;28;20482;-68
2023/09/08 10:43:19;;;;;;;14.50;14.10;;;35.70;98.00;;;;;;4980888;28;20466;-68
2023/09/08 10:45:47;;;;;;;15.33;14.83;;;36.10;98.10;;;;;;4983086;28;20500;-68
2023/09/08 10:48:16;;;;;;;15.00;14.50;;;36.60;97.40;;;;;;4988028;28;20797;-68
2023/09/08 10:50:43;;;;;;;13.83;13.43;;;36.70;95.90;;;;;;4986199;28;20490;-68
2023/09/08 10:53:17;;;;;;;13.87;13.47;;;36.70;95.40;;;;;;4983457;28;20506;-68
2023/09/08 10:55:48;;;;;;;13.70;13.30;;;36.50;95.00;;;;;;4980716;28;20912;-68
2023/09/08 10:58:29;;;;;;;14.47;14.07;;;36.10;94.20;;;;;;4987390;28;20458;-68
2023/09/08 11:01:01;;;;;;;14.60;14.20;;;35.70;95.00;;;;;;4982095;28;20465;-68
2023/09/08 11:03:44;;;;;;;14.47;14.07;;;36.20;95.50;;;;;;4986854;28;20467;-68
2023/09/08 11:06:12;;;;;;;14.03;13.63;;;37.10;94.40;;;;;;4980563;28;20557;-68
2023/09/08 11:08:42;;;;;;;14.37;13.97;;;37.40;92.90;;;;;;4989137;28;20478;-69
2023/09/08 11:11:11;;;;;;;15.40;14.90;;;37.20;93.40;;;;;;4985386;28;20557;-68
2023/09/08 11:13:39;;;;;;;14.43;14.03;;;37.10;93.30;;;;;;4988087;28;20466;-68
2023/09/08 11:16:07;;;;;;;14.13;13.73;;;37.50;91.80;;;;;;4982449;28;20557;-68
2023/09/08 11:18:36;;;;;;;13.80;13.40;;;38.40;91.50;;;;;;4985003;28;20469;-68
2023/09/08 11:21:04;;;;;;;14.23;13.83;;;38.10;90.80;;;;;;4986203;28;20459;-68
2023/09/08 11:23:32;;;;;;;14.20;13.80;;;37.50;91.00;;;;;;4981616;28;20466;-68
2023/09/08 11:26:01;;;;;;;14.20;13.80;;;38.40;90.50;;;;;;4978998;28;20475;-69
2023/09/08 11:28:28;;;;;;;14.27;13.87;;;38.10;89.90;;;;;;4979206;28;20544;-68
2023/09/08 11:30:56;;;;;;;13.57;13.17;;;38.40;90.10;;;;;;4988654;28;20482;-68
2023/09/08 11:33:25;;;;;;;13.57;13.17;;;38.00;89.20;;;;;;4984837;28;21017;-68
2023/09/08 11:35:54;;;;;;;14.80;14.40;;;38.20;89.00;;;;;;4987619;28;21069;-68
2023/09/08 11:38:26;;;;;;;13.17;12.87;;;38.10;88.80;;;;;;4976651;28;20556;-68
2023/09/08 11:40:54;;;;;;;13.70;13.30;;;38.90;88.90;;;;;;4984000;28;20859;-68
2023/09/08 11:43:21;;;;;;;13.67;13.27;;;39.60;85.30;;;;;;4982931;28;20459;-68
2023/09/08 11:45:48;;;;;;;14.40;14.00;;;39.70;83.40;;;;;;4984834;28;20500;-68
2023/09/08 11:48:16;;;;;;;14.57;14.17;;;39.20;82.10;;;;;;4981334;28;20466;-69
2023/09/08 11:50:43;;;;;;;14.63;14.23;;;38.90;82.70;;;;;;4985367;28;20921;-69
2023/09/08 11:53:11;;;;;;;13.10;12.80;;;39.00;85.10;;;;;;4978721;28;20888;-68
2023/09/08 11:55:39;;;;;;;12.87;12.57;;;39.40;83.20;;;;;;4981697;28;20474;-69
2023/09/08 11:58:06;;;;;;;13.67;13.27;;;39.50;82.00;;;;;;4982856;28;20807;-68
2023/09/08 12:00:49;;;;;;;12.80;12.50;;;40.10;81.60;;;;;;4981413;28;20466;-68
2023/09/08 12:03:16;;;;;;;14.10;13.70;;;40.40;77.20;;;;;;4977621;28;20714;-68
2023/09/08 12:05:45;;;;;;;12.77;12.47;;;39.90;76.50;;;;;;4978092;28;20647;-68
2023/09/08 12:08:14;;;;;;;12.40;12.10;;;38.90;78.10;;;;;;4983274;28;20467;-68
2023/09/08 12:10:42;;;;;;;12.40;12.10;;;39.40;80.30;;;;;;4985931;28;20466;-69
2023/09/08 12:13:09;;;;;;;13.37;12.97;;;39.90;79.10;;;;;;4980034;28;20832;-68
2023/09/08 12:15:39;;;;;;;12.20;11.90;;;40.30;78.30;;;;;;4983939;28;20525;-69
2023/09/08 12:18:08;;;;;;;13.13;12.83;;;40.80;77.00;;;;;;4985584;28;20460;-68
2023/09/08 12:20:37;;;;;;;12.50;12.20;;;40.80;78.00;;;;;;4984314;28;20887;-69
2023/09/08 12:23:07;;;;;;;12.47;12.17;;;41.10;77.90;;;;;;4978187;28;20466;-68
2023/09/08 12:25:45;;;;;;;13.10;12.80;;;41.40;75.00;;;;;;4978552;28;20831;-68
2023/09/08 12:28:12;;;;;;;12.40;12.10;;;40.90;74.60;;;;;;4981996;28;20458;-68
2023/09/08 12:30:40;;;;;;;12.40;12.10;;;39.80;77.40;;;;;;4983576;28;20474;-68
2023/09/08 12:33:08;;;;;;;12.27;11.97;;;40.30;75.90;;;;;;4972751;28;20500;-68
2023/09/08 12:35:36;;;;;;;12.50;12.20;;;40.70;74.10;;;;;;4981726;28;21004;-68
2023/09/08 12:38:05;;;;;;;13.10;12.80;;;41.30;73.50;;;;;;4979044;28;20467;-69
2023/09/08 12:40:36;;;;;;;13.13;12.80;;;41.80;73.10;;;;;;4976879;28;20462;-68